Share

West Wendover, NV

Wendover (KENV) Elev 4239 ft | 40.72 °N, 114.03 °W | Change Station

Current weather conditions updated 9 minutes ago

Clear
Clear
72 °F
Feels Like 72 °F
N
12
Wind Variable Wind from SSE
Gusts 18 mph
Sunrise 5:51 AM
Sunset 7:20 PM
Moon Waning Gibbous

Tomorrow is forecast to be nearly the same temperature as today.

Pressure 29.95 in
Visibility 10.0 miles
Clouds Clear
Dew Point 34 °F
Humidity 25%
Rainfall 0.00 in
Snow Depth Not available.
UV 2 out of 16
Pollen 9.20 out of 12
Air Quality Not available.
Flu Activity Sporadic
METAR KENV 200015Z 16010G16KT 10SM CLR 22/01 A2995 RMK AO1

More Conditions Fewer Conditions

Pressure 29.95 in
Visibility 10.0 miles
Clouds Clear
Dew Point 34 °F
Humidity 25%
Rainfall 0.00 in
Snow Depth Not available.
UV 2 out of 16
Pollen 9.20 out of 12
Air Quality Not available.
Flu Activity Sporadic
METAR KENV 200015Z 16010G16KT 10SM CLR 22/01 A2995 RMK AO1

More Conditions Fewer Conditions

10-Day Weather Forecast

Almanac

Astronomy

Apr. 19, 2014 Rise Set
Actual Time 5:51 AM PDT 7:20 PM PDT
Civil Twilight 5:23 AM PDT 7:49 PM PDT
Nautical Twilight 4:48 AM PDT 8:23 PM PDT
Astronomical Twilight 4:12 AM PDT 9:00 PM PDT
Moon No Moon Rise 9:13 AM PDT (4/19)
Length of Visible Light 14h 25m
Length of Day
13h 28m
Tomorrow will be 2m 30s longer.
Waning Gibbous, 75% of the Moon is Illuminated
Today
Waning Gibbous
Apr 22
Last Quarter
Apr 29
New
May 6
First Quarter
May 14
Full

Today's Extremes

State Highs State Lows

Community

  • New Day
    New Day
  • Happy Easter!
    Happy Easter!
  • poppy bloom near Mazar-e-Sharif
    poppy bloom near Mazar-e-Sharif
  • Happy Easter WU friends!!!!
    Happy Easter WU friends!!!!
  • Skirting the Horizon
    Skirting the Horizon

WunderPhotos

Upload Photos

1,702,986 photos uploaded!

WunderBlogs® & News

Nearby

Snow Depth

Station Depth Elevation
Hole-in-mountain 29 in 7900 ft
Dorsey Basin 12 in 8100 ft
Lamoille #3 8 in 7700 ft
Green Mountain 14 in 8000 ft
Corral Canyon 43 in 8500 ft

Coastal Water Temperatures

Place Temperature
No Stations Reporting

Earthquake Activity

City Distance Mag. Time & Date
No recent earthquake activity has been reported nearby.
Minimum magnitude displayed is 2.5.

Nearby Weather Stations

Station Location Temp. Dew Point Humidity Wind Precip. Elev Updated Type
MesoWest SHAFTR , Oasis, NV 68 °F - - North  at  - 0.00 in / hr 5678 ft 4:15 PM PDT MADIS

Show More Stations Show Fewer Stations

What do you think?

We're not finished. Please let us know what you like, what you don't like, and what you are still missing.